createdAt,value
2023-01-22T00:03:36.194Z,15.40
2023-01-22T00:07:04.893Z,10.80
2023-01-22T00:10:35.642Z,12.90
2023-01-22T00:14:03.034Z,12.90
2023-01-22T00:17:32.470Z,12.00
2023-01-22T00:21:00.322Z,14.20
2023-01-22T00:24:27.445Z,14.40
2023-01-22T00:27:54.725Z,15.50
2023-01-22T00:31:23.031Z,15.40
2023-01-22T00:34:52.633Z,18.10
2023-01-22T00:38:19.846Z,14.20
2023-01-22T00:41:47.088Z,14.10
2023-01-22T00:45:16.253Z,17.70
2023-01-22T00:48:45.433Z,14.90
2023-01-22T00:52:12.219Z,15.50
2023-01-22T00:55:41.666Z,18.40
2023-01-22T00:59:10.800Z,15.70
2023-01-22T01:03:00.358Z,16.20
2023-01-22T01:06:28.329Z,14.50
2023-01-22T01:09:57.011Z,15.60
2023-01-22T01:13:23.947Z,13.60
2023-01-22T01:16:52.564Z,12.80
2023-01-22T01:20:20.570Z,11.90
2023-01-22T01:23:47.884Z,14.00
2023-01-22T01:27:15.047Z,12.90
2023-01-22T01:30:42.289Z,13.70
2023-01-22T01:34:10.901Z,13.30
2023-01-22T01:37:37.597Z,11.60
2023-01-22T01:41:05.013Z,12.10
2023-01-22T01:44:35.616Z,12.50
2023-01-22T01:49:02.882Z,12.30
2023-01-22T01:52:30.643Z,16.60
2023-01-22T01:55:59.904Z,11.80
2023-01-22T01:59:28.087Z,14.50
2023-01-22T02:02:56.089Z,12.30
2023-01-22T02:06:23.696Z,12.90
2023-01-22T02:09:51.921Z,10.20
2023-01-22T02:13:26.192Z,12.40
2023-01-22T02:17:09.316Z,12.20
2023-01-22T02:20:38.168Z,13.20
2023-01-22T02:24:09.634Z,11.20
2023-01-22T02:27:37.369Z,13.00
2023-01-22T02:31:05.670Z,11.30
2023-01-22T02:34:33.936Z,11.20
2023-01-22T02:38:01.110Z,10.60
2023-01-22T02:41:30.106Z,12.10
2023-01-22T02:44:58.156Z,12.10
2023-01-22T02:48:26.323Z,12.30
2023-01-22T02:51:53.051Z,12.30
2023-01-22T02:55:20.898Z,10.80
2023-01-22T02:58:49.975Z,11.00
2023-01-22T03:02:17.012Z,11.20
2023-01-22T03:05:49.238Z,12.80
2023-01-22T03:09:18.958Z,16.50
2023-01-22T03:13:05.492Z,12.60
2023-01-22T03:16:51.937Z,12.40
2023-01-22T03:20:36.852Z,11.60
2023-01-22T03:24:03.686Z,10.10
2023-01-22T03:27:32.277Z,10.50
2023-01-22T03:31:00.046Z,10.40
2023-01-22T03:34:28.347Z,10.90
2023-01-22T03:37:57.263Z,10.10
2023-01-22T03:41:25.245Z,9.40
2023-01-22T03:44:52.808Z,8.40
2023-01-22T03:48:20.915Z,8.40
2023-01-22T03:51:48.507Z,9.90
2023-01-22T03:55:16.277Z,9.60
2023-01-22T03:58:45.822Z,9.20
2023-01-22T04:02:15.147Z,10.00
2023-01-22T04:05:54.831Z,10.70
2023-01-22T04:09:21.944Z,10.40
2023-01-22T04:12:55.177Z,10.80
2023-01-22T04:16:26.809Z,10.80
2023-01-22T04:20:20.906Z,10.40
2023-01-22T04:24:02.098Z,10.80
2023-01-22T04:27:30.520Z,9.90
2023-01-22T04:30:58.317Z,10.10
2023-01-22T04:34:41.837Z,10.30
2023-01-22T04:38:21.292Z,9.80
2023-01-22T04:41:50.735Z,10.10
2023-01-22T04:45:18.095Z,9.10
2023-01-22T04:48:46.601Z,9.70
2023-01-22T04:52:14.400Z,9.20
2023-01-22T04:55:42.553Z,9.20
2023-01-22T04:59:11.133Z,9.20
2023-01-22T05:02:38.414Z,10.10
2023-01-22T05:06:08.519Z,10.30
2023-01-22T05:09:36.545Z,11.00
2023-01-22T05:13:07.970Z,10.80
2023-01-22T05:16:36.472Z,10.20
2023-01-22T05:20:04.224Z,10.30
2023-01-22T05:23:36.843Z,9.90
2023-01-22T05:27:09.999Z,10.20
2023-01-22T05:30:50.425Z,10.80
2023-01-22T05:34:34.203Z,10.00
2023-01-22T05:38:01.563Z,10.00
2023-01-22T05:41:28.242Z,10.60
2023-01-22T05:44:56.289Z,10.40
2023-01-22T05:48:26.074Z,9.10
2023-01-22T05:52:05.737Z,10.40
2023-01-22T05:55:34.153Z,9.10
2023-01-22T05:59:02.231Z,9.30
2023-01-22T06:02:30.029Z,9.30
2023-01-22T06:06:05.809Z,8.60
2023-01-22T06:09:34.120Z,9.30
2023-01-22T06:13:00.972Z,9.10
2023-01-22T06:16:28.425Z,10.50
2023-01-22T06:20:16.521Z,10.60
2023-01-22T06:23:45.879Z,11.10
2023-01-22T06:27:13.394Z,10.60
2023-01-22T06:31:11.707Z,9.90
2023-01-22T06:34:40.243Z,10.80
2023-01-22T06:38:10.143Z,10.80
2023-01-22T06:41:39.325Z,11.10
2023-01-22T06:45:08.986Z,9.90
2023-01-22T06:48:36.907Z,9.80
2023-01-22T06:52:06.906Z,10.00
2023-01-22T06:55:34.738Z,10.80
2023-01-22T06:59:01.899Z,9.70
2023-01-22T07:02:28.761Z,9.50
2023-01-22T07:06:01.401Z,9.50
2023-01-22T07:09:31.588Z,8.90
2023-01-22T07:13:00.352Z,10.10
2023-01-22T07:16:27.467Z,10.70
2023-01-22T07:19:54.296Z,10.00
2023-01-22T07:23:21.214Z,9.90
2023-01-22T07:26:49.711Z,9.90
2023-01-22T07:30:18.583Z,10.80
2023-01-22T07:33:45.849Z,11.60
2023-01-22T07:37:16.093Z,11.90
2023-01-22T07:40:42.857Z,11.10
2023-01-22T07:44:10.063Z,12.40
2023-01-22T07:47:37.163Z,12.00
2023-01-22T07:51:06.442Z,11.30
2023-01-22T07:54:36.592Z,18.20
2023-01-22T07:58:06.253Z,12.10
2023-01-22T08:01:33.530Z,15.00
2023-01-22T08:05:00.446Z,12.90
2023-01-22T08:08:29.365Z,11.90
2023-01-22T08:11:57.722Z,12.50
2023-01-22T08:15:28.839Z,11.90
2023-01-22T08:18:57.762Z,12.20
2023-01-22T08:22:24.902Z,11.70
2023-01-22T08:25:51.969Z,11.90
2023-01-22T08:29:18.837Z,12.10
2023-01-22T08:32:46.737Z,12.40
2023-01-22T08:36:13.636Z,13.70
2023-01-22T08:39:40.512Z,14.80
2023-01-22T08:43:07.750Z,14.30
2023-01-22T08:46:36.216Z,15.00
2023-01-22T08:50:04.178Z,15.10
2023-01-22T08:53:31.326Z,14.60
2023-01-22T08:56:58.024Z,15.50
2023-01-22T09:00:26.129Z,15.20
2023-01-22T09:03:53.024Z,14.50
2023-01-22T09:07:20.833Z,19.00
2023-01-22T09:10:47.590Z,12.20
2023-01-22T09:14:14.104Z,14.00
2023-01-22T09:17:41.951Z,13.20
2023-01-22T09:21:10.389Z,13.00
2023-01-22T09:24:37.273Z,13.80
2023-01-22T09:28:08.932Z,14.60
2023-01-22T09:31:36.362Z,13.20
2023-01-22T09:35:06.250Z,13.50
2023-01-22T09:38:34.311Z,13.30
2023-01-22T09:42:05.113Z,13.40
2023-01-22T09:45:34.687Z,13.80
2023-01-22T09:49:08.541Z,14.60
2023-01-22T09:52:39.441Z,14.50
2023-01-22T09:56:12.256Z,15.20
2023-01-22T09:59:44.714Z,15.10
2023-01-22T10:03:22.534Z,14.70
2023-01-22T10:06:51.638Z,14.90
2023-01-22T10:10:24.085Z,15.70
2023-01-22T10:13:54.180Z,15.10
2023-01-22T10:17:24.605Z,16.80
2023-01-22T10:20:52.031Z,17.10
2023-01-22T10:24:22.032Z,17.20
2023-01-22T10:27:57.793Z,19.80
2023-01-22T10:31:30.141Z,18.70
2023-01-22T10:35:08.854Z,17.20
2023-01-22T10:38:35.407Z,16.10
2023-01-22T10:42:05.527Z,15.10
2023-01-22T10:45:33.193Z,16.60
2023-01-22T10:49:05.846Z,16.80
2023-01-22T10:52:39.182Z,15.50
2023-01-22T10:56:10.938Z,18.50
2023-01-22T10:59:40.866Z,16.00
2023-01-22T11:03:21.596Z,18.60
2023-01-22T11:06:53.054Z,20.80
2023-01-22T11:10:25.617Z,18.20
2023-01-22T11:14:00.629Z,21.60
2023-01-22T11:17:32.773Z,18.80
2023-01-22T11:21:00.915Z,16.40
2023-01-22T11:24:35.771Z,17.30
2023-01-22T11:28:14.117Z,14.70
2023-01-22T11:31:56.780Z,17.80
2023-01-22T11:35:30.067Z,18.00
2023-01-22T11:39:00.754Z,20.20
2023-01-22T11:42:40.484Z,16.80
2023-01-22T11:46:21.985Z,18.30
2023-01-22T11:50:02.273Z,17.00
2023-01-22T11:53:57.607Z,14.90
2023-01-22T11:57:30.487Z,16.20
2023-01-22T12:01:09.926Z,15.80
2023-01-22T12:04:56.357Z,17.00
2023-01-22T12:08:37.367Z,16.10
2023-01-22T12:12:19.804Z,17.00
2023-01-22T12:15:55.366Z,15.60
2023-01-22T12:19:45.755Z,16.60
2023-01-22T12:23:22.237Z,17.50
2023-01-22T12:26:56.875Z,19.10
2023-01-22T12:30:29.344Z,17.50
2023-01-22T12:33:56.455Z,20.20
2023-01-22T12:37:29.038Z,18.10
2023-01-22T12:41:20.316Z,19.10
2023-01-22T12:44:59.408Z,17.80
2023-01-22T12:48:33.917Z,18.40
2023-01-22T12:52:04.162Z,17.60
2023-01-22T12:55:41.620Z,15.30
2023-01-22T12:59:35.733Z,17.80
2023-01-22T13:03:06.338Z,20.70
2023-01-22T13:06:44.901Z,19.50
2023-01-22T13:10:31.078Z,20.70
2023-01-22T13:14:15.025Z,22.90
2023-01-22T13:17:47.396Z,21.50
2023-01-22T13:21:19.152Z,25.20
2023-01-22T13:24:54.372Z,20.10
2023-01-22T13:28:24.235Z,22.00
2023-01-22T13:31:56.654Z,21.40
2023-01-22T13:35:24.443Z,20.70
2023-01-22T13:39:00.119Z,21.00
2023-01-22T13:42:30.480Z,22.00
2023-01-22T13:45:59.878Z,34.10
2023-01-22T13:49:30.052Z,26.50
2023-01-22T13:53:02.065Z,33.60
2023-01-22T13:56:31.598Z,24.60
2023-01-22T14:00:01.550Z,29.40
2023-01-22T14:03:33.390Z,29.50
2023-01-22T14:07:00.781Z,29.90
2023-01-22T14:10:29.482Z,24.80
2023-01-22T14:13:57.355Z,23.30
2023-01-22T14:17:29.043Z,21.10
2023-01-22T14:20:55.667Z,20.80
2023-01-22T14:24:25.686Z,25.20
2023-01-22T14:27:53.766Z,27.60
2023-01-22T14:31:21.731Z,21.40
2023-01-22T14:34:49.165Z,24.20
2023-01-22T14:38:15.972Z,26.00
2023-01-22T14:41:44.928Z,23.20
2023-01-22T14:45:16.551Z,18.00
2023-01-22T14:48:44.229Z,19.30
2023-01-22T14:52:11.731Z,20.80
2023-01-22T14:55:38.600Z,22.60
2023-01-22T14:59:05.589Z,21.60
2023-01-22T15:02:35.086Z,18.00
2023-01-22T15:06:04.903Z,19.60
2023-01-22T15:09:33.283Z,19.90
2023-01-22T15:13:00.848Z,19.40
2023-01-22T15:16:27.904Z,19.00
2023-01-22T15:19:57.430Z,23.30
2023-01-22T15:23:24.729Z,20.80
2023-01-22T15:26:51.743Z,22.60
2023-01-22T15:30:19.155Z,20.50
2023-01-22T15:33:46.208Z,20.50
2023-01-22T15:37:15.560Z,22.00
2023-01-22T15:40:43.488Z,21.80
2023-01-22T15:44:12.882Z,25.20
2023-01-22T15:47:39.346Z,25.80
2023-01-22T15:51:14.033Z,19.50
2023-01-22T15:54:41.190Z,20.00
2023-01-22T15:58:08.331Z,19.20
2023-01-22T16:01:35.819Z,18.50
2023-01-22T16:05:02.680Z,17.30
2023-01-22T16:08:29.452Z,17.80
2023-01-22T16:11:57.582Z,17.70
2023-01-22T16:15:24.333Z,19.30
2023-01-22T16:18:51.747Z,19.00
2023-01-22T16:22:18.395Z,20.40
2023-01-22T16:25:45.288Z,19.70
2023-01-22T16:29:13.358Z,20.30
2023-01-22T16:32:42.986Z,19.50
2023-01-22T16:36:12.561Z,19.70
2023-01-22T16:39:39.654Z,19.10
2023-01-22T16:43:07.720Z,19.30
2023-01-22T16:46:36.973Z,19.30
2023-01-22T16:50:04.190Z,18.00
2023-01-22T16:53:40.377Z,18.60
2023-01-22T16:57:13.681Z,18.90
2023-01-22T17:00:42.710Z,18.90
2023-01-22T17:04:11.159Z,22.40
2023-01-22T17:07:39.251Z,20.90
2023-01-22T17:11:08.994Z,19.30
2023-01-22T17:14:43.757Z,19.60
2023-01-22T17:18:14.195Z,19.00
2023-01-22T17:21:41.890Z,17.50
2023-01-22T17:25:17.531Z,15.90
2023-01-22T17:28:46.315Z,16.20
2023-01-22T17:32:15.253Z,17.70
2023-01-22T17:35:44.685Z,21.10
2023-01-22T17:39:17.148Z,20.70
2023-01-22T17:42:53.115Z,22.20
2023-01-22T17:46:25.035Z,20.00
2023-01-22T17:49:52.265Z,18.40
2023-01-22T17:53:24.014Z,19.70
2023-01-22T17:56:53.645Z,34.10
2023-01-22T18:00:23.138Z,35.50
2023-01-22T18:03:51.647Z,23.10
2023-01-22T18:07:18.971Z,22.70
2023-01-22T18:10:46.041Z,21.50
2023-01-22T18:14:18.219Z,23.80
2023-01-22T18:17:45.436Z,25.20
2023-01-22T18:21:19.652Z,25.40
2023-01-22T18:24:48.741Z,23.50
2023-01-22T18:28:20.168Z,23.40
2023-01-22T18:31:48.663Z,20.50
2023-01-22T18:35:21.355Z,24.50
2023-01-22T18:38:51.634Z,28.60
2023-01-22T18:42:21.745Z,22.60
2023-01-22T18:45:49.400Z,24.00
2023-01-22T18:49:20.491Z,21.80
2023-01-22T18:52:49.858Z,22.70
2023-01-22T18:56:17.245Z,19.00
2023-01-22T18:59:45.067Z,22.10
2023-01-22T19:03:22.559Z,22.00
2023-01-22T19:06:52.840Z,20.50
2023-01-22T19:10:24.580Z,21.30
2023-01-22T19:13:56.563Z,18.60
2023-01-22T19:17:25.908Z,20.00
2023-01-22T19:20:54.558Z,18.90
2023-01-22T19:24:27.145Z,20.00
2023-01-22T19:27:56.368Z,20.00
2023-01-22T19:31:27.717Z,19.90
2023-01-22T19:34:54.565Z,18.80
2023-01-22T19:38:22.623Z,18.80
2023-01-22T19:41:54.574Z,22.60
2023-01-22T19:45:26.460Z,20.70
2023-01-22T19:48:54.179Z,18.80
2023-01-22T19:52:22.890Z,20.40
2023-01-22T19:55:51.325Z,18.10
2023-01-22T19:59:21.749Z,16.80
2023-01-22T20:02:50.259Z,16.00
2023-01-22T20:06:20.045Z,14.20
2023-01-22T20:09:51.146Z,15.40
2023-01-22T20:13:21.363Z,13.70
2023-01-22T20:16:49.959Z,15.10
2023-01-22T20:20:19.496Z,14.00
2023-01-22T20:23:47.987Z,15.70
2023-01-22T20:27:18.192Z,15.40
2023-01-22T20:30:47.170Z,14.00
2023-01-22T20:34:17.203Z,12.30
2023-01-22T20:37:49.180Z,13.30
2023-01-22T20:41:33.515Z,14.60
2023-01-22T20:45:11.465Z,12.90
2023-01-22T20:48:53.051Z,12.90
2023-01-22T20:52:22.095Z,12.40
2023-01-22T20:55:50.315Z,13.60
2023-01-22T20:59:24.404Z,31.30
2023-01-22T21:02:54.732Z,40.40
2023-01-22T21:06:27.625Z,19.70
2023-01-22T21:09:55.500Z,18.50
2023-01-22T21:13:24.172Z,19.60
2023-01-22T21:16:51.961Z,15.80
2023-01-22T21:20:23.558Z,13.90
2023-01-22T21:23:55.231Z,14.10
2023-01-22T21:27:31.825Z,14.30
2023-01-22T21:31:05.404Z,15.10
2023-01-22T21:34:36.474Z,14.60
2023-01-22T21:38:05.595Z,14.40
2023-01-22T21:41:34.947Z,25.70
2023-01-22T21:45:19.367Z,28.50
2023-01-22T21:48:47.931Z,19.10
2023-01-22T21:52:16.682Z,17.80
2023-01-22T21:55:56.506Z,23.60
2023-01-22T21:59:28.016Z,15.20
2023-01-22T22:02:55.462Z,18.70
2023-01-22T22:06:23.085Z,26.40
2023-01-22T22:09:50.101Z,18.80
2023-01-22T22:13:34.280Z,22.00
2023-01-22T22:17:01.991Z,17.80
2023-01-22T22:20:30.248Z,24.10
2023-01-22T22:23:59.341Z,29.60
2023-01-22T22:27:27.893Z,22.40
2023-01-22T22:30:54.752Z,18.00
2023-01-22T22:34:21.685Z,18.40
2023-01-22T22:37:48.494Z,21.40
2023-01-22T22:41:19.180Z,29.60
2023-01-22T22:44:46.347Z,35.30
2023-01-22T22:48:15.543Z,42.70
2023-01-22T22:51:44.045Z,34.10
2023-01-22T22:55:12.636Z,27.60
2023-01-22T22:58:39.756Z,29.30
2023-01-22T23:02:09.452Z,24.00
2023-01-22T23:05:40.604Z,30.20
2023-01-22T23:09:08.670Z,22.40
2023-01-22T23:12:35.545Z,16.10
2023-01-22T23:16:05.275Z,20.30
2023-01-22T23:19:31.849Z,19.10
2023-01-22T23:22:59.713Z,21.20
2023-01-22T23:26:30.269Z,33.20
2023-01-22T23:29:57.347Z,26.30
2023-01-22T23:33:25.071Z,30.30
2023-01-22T23:36:53.032Z,28.10
2023-01-22T23:40:20.595Z,21.80
2023-01-22T23:43:48.046Z,21.40
2023-01-22T23:47:15.154Z,27.70
2023-01-22T23:50:45.010Z,28.00
2023-01-22T23:54:12.511Z,23.10
2023-01-22T23:57:39.081Z,20.10
